Time;durP1;ratioP1;P1;durP2;ratioP2;P2;SDS_P1;SDS_P2;PMS_P1;PMS_P2;Temp;Humidity;BMP_temperature;BMP_pressure;BME280_temperature;BME280_humidity;BME280_pressure;Samples;Min_cycle;Max_cycle;Signal;HPM_P1;HPM_P2
2023/07/03 00:02:11;;;;;;;11.93;3.33;;;18.40;80.30;;;;;;5032816;28;20029;-71
2023/07/03 00:04:37;;;;;;;10.05;4.15;;;18.40;80.20;;;;;;5033764;28;20033;-72
2023/07/03 00:07:07;;;;;;;8.10;3.58;;;18.40;80.00;;;;;;5032876;28;20036;-70
2023/07/03 00:09:32;;;;;;;10.70;3.83;;;18.40;79.90;;;;;;5033044;28;20078;-72
2023/07/03 00:11:58;;;;;;;8.98;3.33;;;18.40;80.80;;;;;;5032242;28;20120;-71
2023/07/03 00:14:24;;;;;;;7.90;3.65;;;18.40;80.30;;;;;;5032173;28;20025;-72
2023/07/03 00:16:50;;;;;;;15.50;3.53;;;18.40;80.50;;;;;;5032969;28;20025;-71
2023/07/03 00:19:15;;;;;;;11.02;4.00;;;18.40;80.60;;;;;;5052497;28;20035;-70
2023/07/03 00:21:44;;;;;;;13.55;3.63;;;18.30;80.50;;;;;;5052071;28;20043;-71
2023/07/03 00:24:11;;;;;;;10.98;3.80;;;18.40;80.90;;;;;;5051705;28;20033;-71
2023/07/03 00:26:37;;;;;;;7.22;3.00;;;18.40;81.10;;;;;;5084195;28;20126;-72
2023/07/03 00:29:03;;;;;;;7.28;3.08;;;18.30;81.60;;;;;;5052119;28;20351;-71
2023/07/03 00:31:28;;;;;;;10.13;4.05;;;18.30;81.80;;;;;;5051507;28;20132;-71
2023/07/03 00:33:54;;;;;;;8.90;3.45;;;18.30;81.90;;;;;;5051578;28;20037;-70
2023/07/03 00:36:19;;;;;;;8.77;3.65;;;18.30;81.70;;;;;;5051628;28;20037;-71
2023/07/03 00:38:45;;;;;;;15.13;3.90;;;18.20;81.60;;;;;;5051358;28;20053;-71
2023/07/03 00:41:10;;;;;;;10.35;3.53;;;18.20;81.70;;;;;;5051352;28;20047;-71
2023/07/03 00:43:40;;;;;;;12.88;3.65;;;18.20;82.00;;;;;;5051895;28;20032;-70
2023/07/03 00:46:08;;;;;;;9.15;3.55;;;18.20;82.30;;;;;;5051834;28;20432;-70
2023/07/03 00:48:34;;;;;;;9.00;3.65;;;18.20;82.90;;;;;;5051283;28;20045;-70
2023/07/03 00:51:00;;;;;;;15.20;4.25;;;18.20;82.80;;;;;;5051186;28;20063;-71
2023/07/03 00:53:26;;;;;;;9.43;3.53;;;18.10;82.60;;;;;;5051087;28;20033;-70
2023/07/03 00:55:51;;;;;;;15.70;3.70;;;18.10;82.70;;;;;;5051733;28;20112;-71
2023/07/03 00:58:17;;;;;;;10.70;3.40;;;18.10;82.90;;;;;;5049939;28;20029;-71
2023/07/03 01:00:51;;;;;;;8.05;3.40;;;18.10;83.10;;;;;;5049830;28;20029;-72
2023/07/03 01:03:21;;;;;;;13.23;3.95;;;18.00;83.10;;;;;;5050893;28;20467;-71
2023/07/03 01:05:49;;;;;;;9.80;3.70;;;18.00;83.00;;;;;;5050915;28;20111;-71
2023/07/03 01:08:16;;;;;;;10.45;3.55;;;18.00;83.60;;;;;;5050042;28;20018;-71
2023/07/03 01:10:42;;;;;;;6.95;3.60;;;18.00;83.50;;;;;;5051451;28;20017;-70
2023/07/03 01:13:14;;;;;;;11.40;4.15;;;17.90;84.20;;;;;;5050978;28;20067;-70
2023/07/03 01:15:43;;;;;;;13.93;3.72;;;17.90;83.30;;;;;;5050808;28;20029;-70
2023/07/03 01:18:09;;;;;;;7.22;3.40;;;17.90;83.50;;;;;;5050773;28;20067;-70
2023/07/03 01:20:51;;;;;;;11.77;4.18;;;17.90;83.50;;;;;;5050915;28;20049;-69
2023/07/03 01:23:40;;;;;;;18.60;4.88;;;17.90;83.60;;;;;;5050624;28;20028;-70
2023/07/03 01:26:08;;;;;;;15.07;3.97;;;17.80;83.60;;;;;;5051008;28;20513;-69
2023/07/03 01:28:35;;;;;;;14.85;4.80;;;17.90;83.60;;;;;;5050724;28;20475;-71
2023/07/03 01:31:07;;;;;;;12.02;4.07;;;17.90;83.90;;;;;;5050669;28;20053;-71
2023/07/03 01:33:34;;;;;;;15.65;4.07;;;17.90;83.70;;;;;;5050410;28;20047;-70
2023/07/03 01:36:01;;;;;;;6.95;3.33;;;17.90;83.90;;;;;;5058967;28;20029;-71
2023/07/03 01:38:29;;;;;;;13.43;3.85;;;18.00;83.70;;;;;;5070453;28;20040;-71
2023/07/03 01:40:57;;;;;;;9.73;3.30;;;17.90;83.80;;;;;;5070958;28;20031;-71
2023/07/03 01:43:23;;;;;;;;;;;17.90;83.90;;;;;;5070148;28;20471;-70
2023/07/03 01:45:48;;;;;;;13.23;4.57;;;17.90;84.20;;;;;;5069151;28;19913;-72
2023/07/03 01:48:16;;;;;;;10.05;3.38;;;17.90;84.20;;;;;;5070187;28;20455;-72
2023/07/03 01:50:43;;;;;;;23.20;4.80;;;17.80;84.40;;;;;;5070373;28;20036;-71
2023/07/03 01:53:38;;;;;;;11.45;3.55;;;17.80;84.80;;;;;;5070159;28;20074;-72
2023/07/03 01:56:15;;;;;;;12.45;4.15;;;17.80;84.80;;;;;;5064829;28;20059;-70
2023/07/03 01:58:49;;;;;;;13.90;3.80;;;17.80;85.00;;;;;;5070165;28;20470;-70
2023/07/03 02:01:50;;;;;;;13.65;3.80;;;17.80;85.10;;;;;;5070172;28;20032;-70
2023/07/03 02:04:27;;;;;;;12.68;4.22;;;17.80;85.10;;;;;;5068106;28;20039;-70
2023/07/03 02:06:56;;;;;;;11.85;3.97;;;17.80;85.50;;;;;;5069952;28;20036;-72
2023/07/03 02:09:23;;;;;;;12.65;4.60;;;17.90;85.40;;;;;;5068856;28;20043;-69
2023/07/03 02:11:51;;;;;;;9.32;3.72;;;17.90;85.70;;;;;;5069962;28;20032;-71
2023/07/03 02:14:16;;;;;;;9.85;4.03;;;17.90;85.70;;;;;;5068746;28;20047;-70
2023/07/03 02:16:44;;;;;;;13.52;4.30;;;17.90;86.10;;;;;;5069383;28;20016;-69
2023/07/03 02:19:13;;;;;;;17.88;4.50;;;17.90;86.30;;;;;;5068725;28;20044;-70
2023/07/03 02:21:39;;;;;;;10.15;3.28;;;17.90;86.10;;;;;;5069727;28;20106;-71
2023/07/03 02:24:05;;;;;;;14.80;4.03;;;18.00;86.20;;;;;;5069742;28;20083;-71
2023/07/03 02:26:31;;;;;;;9.43;4.07;;;17.90;86.60;;;;;;5069789;28;20060;-70
2023/07/03 02:28:56;;;;;;;12.70;4.43;;;17.90;86.70;;;;;;5070171;28;20032;-70
2023/07/03 02:31:22;;;;;;;13.73;4.82;;;17.90;87.00;;;;;;5069406;28;20048;-69
2023/07/03 02:33:48;;;;;;;15.32;4.18;;;17.90;87.20;;;;;;5069648;28;20150;-71
2023/07/03 02:36:14;;;;;;;14.02;4.28;;;17.90;87.40;;;;;;5068543;28;20363;-69
2023/07/03 02:38:40;;;;;;;19.92;4.85;;;17.90;87.50;;;;;;5069832;28;20040;-70
2023/07/03 02:41:05;;;;;;;19.65;4.28;;;17.80;87.50;;;;;;5070023;28;20052;-70
2023/07/03 02:43:31;;;;;;;13.05;4.40;;;17.90;87.70;;;;;;5069447;28;20489;-71
2023/07/03 02:46:03;;;;;;;15.65;4.63;;;17.90;87.90;;;;;;5069640;28;20095;-69
2023/07/03 02:48:28;;;;;;;11.50;4.45;;;18.00;88.20;;;;;;5069330;28;20198;-70
2023/07/03 02:50:54;;;;;;;14.55;4.47;;;18.00;88.60;;;;;;5069570;28;20388;-70
2023/07/03 02:53:20;;;;;;;15.02;4.75;;;17.80;88.60;;;;;;5069345;28;20031;-70
2023/07/03 02:55:48;;;;;;;16.85;4.95;;;17.90;88.40;;;;;;5071513;28;20115;-71
2023/07/03 02:58:14;;;;;;;14.75;4.32;;;17.80;88.80;;;;;;5074033;28;20032;-71
2023/07/03 03:00:41;;;;;;;12.30;4.05;;;17.80;89.10;;;;;;5073499;28;20316;-71
2023/07/03 03:03:06;;;;;;;16.42;4.50;;;17.80;89.30;;;;;;5073234;28;20032;-70
2023/07/03 03:05:32;;;;;;;19.00;4.40;;;17.80;89.80;;;;;;5073279;28;20039;-70
2023/07/03 03:07:58;;;;;;;15.35;4.55;;;17.70;90.00;;;;;;5073701;28;20024;-70
2023/07/03 03:10:25;;;;;;;13.88;4.15;;;17.80;90.00;;;;;;5073072;28;20090;-70
2023/07/03 03:12:51;;;;;;;13.88;3.92;;;17.80;90.00;;;;;;5071910;28;20029;-70
2023/07/03 03:15:18;;;;;;;18.05;4.53;;;17.80;90.20;;;;;;5073061;28;20043;-70
2023/07/03 03:17:44;;;;;;;15.43;4.20;;;17.80;90.30;;;;;;5073096;28;20024;-70
2023/07/03 03:20:13;;;;;;;16.73;4.32;;;17.80;90.40;;;;;;5073406;28;20089;-70
2023/07/03 03:22:42;;;;;;;15.70;4.75;;;17.80;90.50;;;;;;5073288;28;20351;-70
2023/07/03 03:25:08;;;;;;;11.68;4.38;;;17.80;90.50;;;;;;5072703;28;20081;-70
2023/07/03 03:27:34;;;;;;;17.40;4.28;;;17.90;90.40;;;;;;5072814;28;20033;-69
2023/07/03 03:29:59;;;;;;;14.23;4.45;;;17.90;90.70;;;;;;5072401;28;20404;-69
2023/07/03 03:32:25;;;;;;;17.77;5.00;;;17.80;90.70;;;;;;5072873;28;20028;-69
2023/07/03 03:34:51;;;;;;;15.30;4.47;;;17.80;90.80;;;;;;5071941;28;20043;-69
2023/07/03 03:37:17;;;;;;;13.85;4.63;;;17.80;90.90;;;;;;5072885;28;20028;-69
2023/07/03 03:39:43;;;;;;;12.85;4.22;;;17.80;90.90;;;;;;5072870;28;20028;-70
2023/07/03 03:42:09;;;;;;;14.13;4.22;;;17.70;91.00;;;;;;5072703;28;20044;-70
2023/07/03 03:44:35;;;;;;;22.42;4.78;;;17.70;91.10;;;;;;5073119;28;20036;-69
2023/07/03 03:47:02;;;;;;;11.77;4.45;;;17.70;91.20;;;;;;5072992;28;20090;-69
2023/07/03 03:49:28;;;;;;;20.48;4.80;;;17.60;91.40;;;;;;5072295;28;20039;-69
2023/07/03 03:51:54;;;;;;;17.42;5.25;;;17.70;91.30;;;;;;5071041;28;20461;-70
2023/07/03 03:54:20;;;;;;;17.80;4.72;;;17.70;91.50;;;;;;5071669;28;20036;-70
2023/07/03 03:56:46;;;;;;;15.55;4.60;;;17.60;91.40;;;;;;5072460;28;20521;-70
2023/07/03 03:59:11;;;;;;;20.27;4.43;;;17.60;91.50;;;;;;5072054;28;20040;-71
2023/07/03 04:01:38;;;;;;;17.40;4.28;;;17.70;91.40;;;;;;5072711;28;20036;-70
2023/07/03 04:04:04;;;;;;;20.20;5.03;;;17.60;91.50;;;;;;5072598;28;20036;-69
2023/07/03 04:06:30;;;;;;;16.17;5.00;;;17.60;91.60;;;;;;5071778;28;20021;-69
2023/07/03 04:08:59;;;;;;;16.85;4.65;;;17.60;91.70;;;;;;5072149;28;20075;-70
2023/07/03 04:11:26;;;;;;;18.88;4.82;;;17.50;91.80;;;;;;5072063;28;20025;-70
2023/07/03 04:13:51;;;;;;;18.45;4.45;;;17.40;92.00;;;;;;5072660;28;20020;-70
2023/07/03 04:16:17;;;;;;;19.90;4.95;;;17.40;92.10;;;;;;5072134;28;20028;-72
2023/07/03 04:18:43;;;;;;;20.15;4.53;;;17.50;92.20;;;;;;5072017;28;20033;-70
2023/07/03 04:21:08;;;;;;;18.60;4.80;;;17.50;92.20;;;;;;5071669;28;20037;-69
2023/07/03 04:23:34;;;;;;;19.10;4.70;;;17.40;92.40;;;;;;5071960;28;20029;-70
2023/07/03 04:26:02;;;;;;;15.25;5.07;;;17.50;92.30;;;;;;5071153;28;20312;-70
2023/07/03 04:28:28;;;;;;;16.98;5.00;;;17.50;92.40;;;;;;5071858;28;20021;-70
2023/07/03 04:30:54;;;;;;;13.45;4.75;;;17.50;92.40;;;;;;5071562;28;20490;-70
2023/07/03 04:33:19;;;;;;;12.77;4.82;;;17.50;92.40;;;;;;5071989;28;20082;-70
2023/07/03 04:35:47;;;;;;;14.07;5.03;;;17.50;92.50;;;;;;5071555;28;20098;-69
2023/07/03 04:38:12;;;;;;;18.63;4.43;;;17.50;92.60;;;;;;5071567;28;20017;-70
2023/07/03 04:40:38;;;;;;;17.00;5.55;;;17.40;92.70;;;;;;5071972;28;20028;-72
2023/07/03 04:43:07;;;;;;;17.35;4.65;;;17.40;92.70;;;;;;5071861;28;20058;-71
2023/07/03 04:45:40;;;;;;;16.90;4.70;;;17.40;92.70;;;;;;5071644;28;20043;-70
2023/07/03 04:48:06;;;;;;;17.10;4.75;;;17.50;92.70;;;;;;5070406;28;20033;-70
2023/07/03 04:50:32;;;;;;;13.77;4.40;;;17.50;92.70;;;;;;5071102;28;20033;-70
2023/07/03 04:52:59;;;;;;;18.50;4.78;;;17.40;92.80;;;;;;5071775;28;20462;-70
2023/07/03 04:55:24;;;;;;;18.00;4.97;;;17.40;92.90;;;;;;5070982;28;20124;-70
2023/07/03 04:57:50;;;;;;;18.52;5.03;;;17.40;92.80;;;;;;5071073;28;20104;-70
2023/07/03 05:00:18;;;;;;;12.98;4.13;;;17.40;92.80;;;;;;5071110;28;20147;-69
2023/07/03 05:02:46;;;;;;;16.38;4.10;;;17.50;92.90;;;;;;5069894;28;20056;-70
2023/07/03 05:05:13;;;;;;;16.27;4.38;;;17.50;92.90;;;;;;5071000;28;20035;-70
2023/07/03 05:07:40;;;;;;;15.57;4.13;;;17.50;92.80;;;;;;5071743;28;20061;-70
2023/07/03 05:10:08;;;;;;;21.30;4.60;;;17.60;92.80;;;;;;5071162;28;20563;-72
2023/07/03 05:12:34;;;;;;;14.65;3.80;;;17.50;92.80;;;;;;5071131;28;20036;-72
2023/07/03 05:15:01;;;;;;;15.90;5.15;;;17.50;92.80;;;;;;5070872;28;20025;-71
2023/07/03 05:17:26;;;;;;;22.90;5.15;;;17.50;92.90;;;;;;5069909;28;20035;-72
2023/07/03 05:19:52;;;;;;;19.65;4.70;;;17.60;92.90;;;;;;5071138;28;20021;-71
2023/07/03 05:22:18;;;;;;;13.95;3.67;;;17.60;93.00;;;;;;5070558;28;20032;-71
2023/07/03 05:24:43;;;;;;;17.58;4.93;;;17.60;92.90;;;;;;5069382;28;20052;-70
2023/07/03 05:27:09;;;;;;;16.98;3.72;;;17.70;92.80;;;;;;5070598;28;20070;-72
2023/07/03 05:29:35;;;;;;;19.92;4.80;;;17.70;92.80;;;;;;5070448;28;20048;-71
2023/07/03 05:32:02;;;;;;;16.92;4.35;;;17.80;92.70;;;;;;5070767;28;20045;-71
2023/07/03 05:34:29;;;;;;;15.35;3.75;;;17.90;92.60;;;;;;5069324;28;20347;-70
2023/07/03 05:36:56;;;;;;;15.35;4.35;;;17.80;92.60;;;;;;5069392;28;20032;-72
2023/07/03 05:39:22;;;;;;;23.67;4.20;;;17.80;92.60;;;;;;5070808;28;20029;-71
2023/07/03 05:41:47;;;;;;;18.90;4.20;;;17.90;92.60;;;;;;5068794;28;20385;-71
2023/07/03 05:44:13;;;;;;;13.43;3.72;;;17.90;92.60;;;;;;5069248;28;20040;-74
2023/07/03 05:46:39;;;;;;;23.75;4.13;;;17.80;92.80;;;;;;5070493;28;20047;-70
2023/07/03 05:49:04;;;;;;;16.38;3.90;;;17.80;92.80;;;;;;5069007;28;20032;-72
2023/07/03 05:51:30;;;;;;;17.13;4.50;;;17.90;92.80;;;;;;5069984;28;20020;-72
2023/07/03 05:53:56;;;;;;;19.48;4.18;;;18.00;92.70;;;;;;5070834;28;20041;-73
2023/07/03 05:56:21;;;;;;;15.02;4.88;;;17.90;92.50;;;;;;5070246;28;20037;-74
2023/07/03 05:58:47;;;;;;;16.77;3.90;;;18.00;92.70;;;;;;5070864;28;20036;-74
2023/07/03 06:01:13;;;;;;;18.85;3.72;;;18.10;92.50;;;;;;5069814;28;20033;-73
2023/07/03 06:03:42;;;;;;;15.65;3.95;;;18.10;92.30;;;;;;5071038;28;20435;-73
2023/07/03 06:06:08;;;;;;;18.45;4.50;;;18.20;92.20;;;;;;5070329;28;20127;-73
2023/07/03 06:08:34;;;;;;;15.65;4.22;;;18.30;92.10;;;;;;5070614;28;20108;-74
2023/07/03 06:11:00;;;;;;;23.80;5.60;;;18.40;92.10;;;;;;5070567;28;20034;-73
2023/07/03 06:13:25;;;;;;;20.35;4.00;;;18.40;92.10;;;;;;5070572;28;20062;-73
2023/07/03 06:15:51;;;;;;;23.45;5.68;;;18.50;92.00;;;;;;5070177;28;20037;-74
2023/07/03 06:18:17;;;;;;;14.88;3.70;;;18.60;91.90;;;;;;5070109;28;20040;-73
2023/07/03 06:20:42;;;;;;;10.85;3.08;;;18.60;91.60;;;;;;5069964;28;20102;-73
2023/07/03 06:23:08;;;;;;;18.85;4.18;;;18.50;91.30;;;;;;5068762;28;20409;-73
2023/07/03 06:25:34;;;;;;;18.10;4.57;;;18.50;91.40;;;;;;5070011;28;20405;-73
2023/07/03 06:28:00;;;;;;;22.33;3.88;;;18.30;91.40;;;;;;5069695;28;20542;-73
2023/07/03 06:30:26;;;;;;;16.08;4.32;;;18.30;91.50;;;;;;5068173;28;20156;-73
2023/07/03 06:32:52;;;;;;;16.77;4.32;;;18.30;91.50;;;;;;5069049;28;20033;-73
2023/07/03 06:35:17;;;;;;;12.88;3.42;;;18.50;91.40;;;;;;5069729;28;20450;-74
2023/07/03 06:37:43;;;;;;;20.55;3.92;;;18.50;91.30;;;;;;5069078;28;20128;-74
2023/07/03 06:40:10;;;;;;;12.45;3.92;;;18.50;91.30;;;;;;5052811;28;20057;-73
2023/07/03 06:42:37;;;;;;;16.57;3.83;;;18.40;91.40;;;;;;5050540;28;20143;-72
2023/07/03 06:45:03;;;;;;;19.95;3.83;;;18.40;91.50;;;;;;5050526;28;20424;-73
2023/07/03 06:47:29;;;;;;;17.70;3.92;;;18.40;91.50;;;;;;5050492;28;20466;-72
2023/07/03 06:49:55;;;;;;;19.00;3.78;;;18.40;91.50;;;;;;5050843;28;20115;-73
2023/07/03 06:52:20;;;;;;;18.50;4.72;;;18.40;91.50;;;;;;5050763;28;20025;-72
2023/07/03 06:54:46;;;;;;;19.15;4.45;;;18.30;91.50;;;;;;5050185;28;20041;-71
2023/07/03 06:57:12;;;;;;;21.67;4.22;;;18.20;91.60;;;;;;5050524;28;20447;-74
2023/07/03 06:59:39;;;;;;;19.58;3.75;;;18.20;91.70;;;;;;5050437;28;20039;-74
2023/07/03 07:02:06;;;;;;;18.92;3.63;;;18.20;91.80;;;;;;5050914;28;20470;-73
2023/07/03 07:04:32;;;;;;;23.60;3.97;;;18.30;91.90;;;;;;5050814;28;20037;-75
2023/07/03 07:06:58;;;;;;;19.20;4.75;;;18.30;91.90;;;;;;5050421;28;20436;-74
2023/07/03 07:09:24;;;;;;;24.05;4.10;;;18.40;91.90;;;;;;5049990;28;20083;-74
2023/07/03 07:11:50;;;;;;;14.50;3.67;;;18.40;91.70;;;;;;5049086;28;20037;-72
2023/07/03 07:14:17;;;;;;;14.82;3.40;;;18.30;91.90;;;;;;5049245;28;20083;-72
2023/07/03 07:16:43;;;;;;;17.15;4.15;;;18.30;91.90;;;;;;5049651;28;20017;-74
2023/07/03 07:19:11;;;;;;;18.45;3.80;;;18.50;91.90;;;;;;5050096;28;20125;-73
2023/07/03 07:21:39;;;;;;;20.10;4.50;;;18.50;91.70;;;;;;5050244;28;20328;-75
2023/07/03 07:24:22;;;;;;;18.10;4.22;;;18.60;91.50;;;;;;5082257;28;20409;-73
2023/07/03 07:26:50;;;;;;;23.75;4.93;;;18.60;91.50;;;;;;5049089;28;20029;-72
2023/07/03 07:29:16;;;;;;;17.67;3.75;;;18.70;91.40;;;;;;5048881;28;20036;-72
2023/07/03 07:31:42;;;;;;;22.55;4.10;;;18.60;91.50;;;;;;5049419;28;20063;-72
2023/07/03 07:34:09;;;;;;;18.63;4.05;;;18.60;91.50;;;;;;5050193;28;20033;-71
2023/07/03 07:36:37;;;;;;;23.85;4.00;;;18.70;91.60;;;;;;5050119;28;20120;-73
2023/07/03 07:39:03;;;;;;;28.40;5.80;;;18.70;91.50;;;;;;5049715;28;20033;-72
2023/07/03 07:41:29;;;;;;;17.25;4.45;;;18.60;91.70;;;;;;5051959;28;20140;-73
2023/07/03 07:43:55;;;;;;;25.02;4.13;;;18.70;91.80;;;;;;5054210;28;20082;-72
2023/07/03 07:46:25;;;;;;;13.68;4.30;;;18.70;91.90;;;;;;5053667;28;20029;-73
2023/07/03 07:48:50;;;;;;;21.45;4.47;;;18.60;91.90;;;;;;5053695;28;20159;-71
2023/07/03 07:51:17;;;;;;;20.15;3.63;;;18.40;92.10;;;;;;5052399;28;20048;-71
2023/07/03 07:53:42;;;;;;;17.00;4.30;;;18.40;92.40;;;;;;5053187;28;20052;-72
2023/07/03 07:56:10;;;;;;;18.48;3.20;;;18.30;92.50;;;;;;5053720;28;20025;-71
2023/07/03 07:58:36;;;;;;;17.50;4.03;;;18.40;92.40;;;;;;5053882;28;20066;-71
2023/07/03 08:01:03;;;;;;;21.33;4.72;;;18.50;92.30;;;;;;5052267;28;20029;-69
2023/07/03 08:03:29;;;;;;;26.00;4.15;;;18.60;92.40;;;;;;5052196;28;20344;-71
2023/07/03 08:06:03;;;;;;;16.90;4.10;;;18.50;92.50;;;;;;5052229;28;20029;-70
2023/07/03 08:08:30;;;;;;;19.20;4.63;;;18.50;92.50;;;;;;5051771;28;20037;-72
2023/07/03 08:10:58;;;;;;;18.42;4.18;;;18.50;92.70;;;;;;5053777;28;20040;-72
2023/07/03 08:13:24;;;;;;;17.38;4.20;;;18.60;92.50;;;;;;5053171;28;20048;-71
2023/07/03 08:15:51;;;;;;;35.05;6.32;;;18.50;92.60;;;;;;5053058;28;20029;-73
2023/07/03 08:18:18;;;;;;;24.13;5.05;;;18.50;92.70;;;;;;5052168;28;20148;-72
2023/07/03 08:20:44;;;;;;;22.30;5.07;;;18.50;92.80;;;;;;5051982;28;20029;-72
2023/07/03 08:23:10;;;;;;;22.92;4.53;;;18.40;92.70;;;;;;5053064;28;20018;-72
2023/07/03 08:25:37;;;;;;;23.02;4.57;;;18.50;92.80;;;;;;5053638;28;20411;-73
2023/07/03 08:28:03;;;;;;;23.30;3.97;;;18.60;92.80;;;;;;5053025;28;20091;-71
2023/07/03 08:30:29;;;;;;;27.73;5.28;;;18.60;92.70;;;;;;5052946;28;20467;-71
2023/07/03 08:32:56;;;;;;;17.08;3.90;;;18.70;92.80;;;;;;5053120;28;20497;-73
2023/07/03 08:35:22;;;;;;;19.67;5.10;;;18.80;92.90;;;;;;5052764;28;20026;-72
2023/07/03 08:37:48;;;;;;;14.98;3.70;;;18.80;92.70;;;;;;5052966;28;20017;-70
2023/07/03 08:40:22;;;;;;;18.95;4.38;;;18.90;92.70;;;;;;5051621;28;20033;-71
2023/07/03 08:42:54;;;;;;;18.45;3.88;;;19.00;92.70;;;;;;5085096;28;20032;-71
2023/07/03 08:45:23;;;;;;;28.10;4.63;;;19.20;92.60;;;;;;5052739;28;20037;-70
2023/07/03 08:47:52;;;;;;;45.92;15.65;;;19.30;92.40;;;;;;5052538;28;20124;-71
2023/07/03 08:50:20;;;;;;;25.70;5.85;;;19.50;92.20;;;;;;5052563;28;20103;-69
2023/07/03 08:52:56;;;;;;;13.70;5.03;;;19.50;92.10;;;;;;5052599;28;20025;-70
2023/07/03 08:55:28;;;;;;;12.35;3.90;;;19.60;92.30;;;;;;5052378;28;20029;-69
2023/07/03 08:57:53;;;;;;;22.85;5.40;;;19.60;92.10;;;;;;5052476;28;20021;-70
2023/07/03 09:00:21;;;;;;;30.95;5.50;;;19.60;92.00;;;;;;5052532;28;20463;-69
2023/07/03 09:02:59;;;;;;;24.50;5.72;;;19.70;92.00;;;;;;5052466;28;20099;-70
2023/07/03 09:05:46;;;;;;;18.63;4.65;;;19.70;91.80;;;;;;5052407;28;20028;-71
2023/07/03 09:08:20;;;;;;;25.77;5.37;;;19.50;92.00;;;;;;5051952;28;20104;-69
2023/07/03 09:10:49;;;;;;;15.88;4.47;;;19.50;92.10;;;;;;5052732;28;20280;-71
2023/07/03 09:13:17;;;;;;;;;;;19.50;92.10;;;;;;5052739;28;20033;-70
2023/07/03 09:16:15;;;;;;;20.05;4.55;;;19.40;92.20;;;;;;5052027;28;19935;-70
2023/07/03 09:19:16;;;;;;;13.77;4.07;;;19.50;92.20;;;;;;5052209;28;20041;-70
2023/07/03 09:21:44;;;;;;;17.05;4.70;;;19.40;92.30;;;;;;5048634;28;20060;-70
2023/07/03 09:24:20;;;;;;;20.17;6.07;;;19.80;91.80;;;;;;5052035;28;20037;-69
2023/07/03 09:26:57;;;;;;;17.52;4.10;;;20.10;91.10;;;;;;5051728;28;20075;-68
2023/07/03 09:29:24;;;;;;;23.20;4.63;;;20.50;91.20;;;;;;5051808;28;20104;-69
2023/07/03 09:31:50;;;;;;;16.80;3.75;;;20.90;89.90;;;;;;5051978;28;20072;-70
2023/07/03 09:34:16;;;;;;;12.48;3.53;;;21.30;89.20;;;;;;5051742;28;20059;-70
2023/07/03 09:36:43;;;;;;;15.45;4.28;;;21.20;88.60;;;;;;5051479;28;20090;-69
2023/07/03 09:39:18;;;;;;;21.38;4.28;;;21.30;88.30;;;;;;5050886;28;20546;-70
2023/07/03 09:41:45;;;;;;;15.63;3.47;;;21.70;87.50;;;;;;5050381;28;20116;-70
2023/07/03 09:44:12;;;;;;;17.75;3.85;;;21.70;85.00;;;;;;5050761;28;20047;-70
2023/07/03 09:46:39;;;;;;;15.02;3.83;;;21.80;84.40;;;;;;5051012;28;20090;-71
2023/07/03 09:49:13;;;;;;;15.00;3.80;;;21.90;83.80;;;;;;5050517;28;20518;-71
2023/07/03 09:51:39;;;;;;;18.67;4.22;;;22.20;84.10;;;;;;5048617;28;20036;-70
2023/07/03 09:54:07;;;;;;;19.63;3.63;;;21.90;83.50;;;;;;5051213;28;20041;-70
2023/07/03 09:56:35;;;;;;;18.10;3.95;;;22.00;83.50;;;;;;5051439;28;20443;-72
2023/07/03 09:59:04;;;;;;;16.67;3.75;;;21.70;83.60;;;;;;5051733;28;20017;-70
2023/07/03 10:01:32;;;;;;;14.95;3.90;;;21.40;83.40;;;;;;5051371;28;20366;-71
2023/07/03 10:04:17;;;;;;;19.20;4.82;;;21.40;83.60;;;;;;5049776;28;20036;-70
2023/07/03 10:07:04;;;;;;;13.02;3.60;;;21.10;83.20;;;;;;5051058;28;20528;-71
2023/07/03 10:09:33;;;;;;;13.48;3.00;;;21.00;83.80;;;;;;5050479;28;20095;-71
2023/07/03 10:12:11;;;;;;;15.38;4.03;;;20.90;83.40;;;;;;5050057;28;20032;-70
2023/07/03 10:14:46;;;;;;;21.70;4.20;;;20.80;83.70;;;;;;5051029;28;20309;-72
2023/07/03 10:17:13;;;;;;;22.30;3.95;;;20.80;83.90;;;;;;5051400;28;20044;-71
2023/07/03 10:19:52;;;;;;;15.23;3.60;;;20.80;83.90;;;;;;5050364;28;20025;-71
2023/07/03 10:22:18;;;;;;;18.75;3.42;;;20.60;84.30;;;;;;5051075;28;20029;-71
2023/07/03 10:24:45;;;;;;;16.33;3.42;;;20.40;83.00;;;;;;5049649;28;20075;-71
2023/07/03 10:27:13;;;;;;;14.90;3.92;;;20.30;83.60;;;;;;5050239;28;20025;-72
2023/07/03 10:29:43;;;;;;;18.67;3.33;;;20.30;83.80;;;;;;5048666;28;20102;-71
2023/07/03 10:32:15;;;;;;;18.60;4.22;;;20.20;84.20;;;;;;5049702;28;20068;-71
2023/07/03 10:35:00;;;;;;;21.67;3.97;;;20.10;85.20;;;;;;5082760;28;20349;-72
2023/07/03 10:37:26;;;;;;;14.73;4.32;;;19.90;86.30;;;;;;5050080;28;20037;-71
2023/07/03 10:40:17;;;;;;;16.83;3.75;;;19.90;87.10;;;;;;5049735;28;20095;-71
2023/07/03 10:42:51;;;;;;;19.65;3.92;;;19.80;87.50;;;;;;5082136;28;20041;-72
2023/07/03 10:45:17;;;;;;;17.27;3.22;;;19.90;88.10;;;;;;5049726;28;20047;-73
2023/07/03 10:47:58;;;;;;;18.50;4.13;;;20.10;88.60;;;;;;5048509;28;20567;-72
2023/07/03 10:50:47;;;;;;;16.13;3.60;;;20.20;89.30;;;;;;5049671;28;20100;-73
2023/07/03 10:53:30;;;;;;;14.27;3.53;;;20.60;89.40;;;;;;5044613;28;20033;-71
2023/07/03 10:56:16;;;;;;;15.02;3.78;;;20.60;88.10;;;;;;5050048;28;20025;-70
2023/07/03 10:59:24;;;;;;;13.65;3.78;;;20.70;87.90;;;;;;5049448;28;20041;-71
2023/07/03 11:01:59;;;;;;;15.43;3.70;;;20.70;88.30;;;;;;5049483;28;20363;-72
2023/07/03 11:04:52;;;;;;;17.98;3.90;;;20.60;88.20;;;;;;5050693;28;20025;-72
2023/07/03 11:07:24;;;;;;;18.63;3.47;;;20.40;88.80;;;;;;5050311;28;20037;-71
2023/07/03 11:10:15;;;;;;;16.27;3.13;;;20.40;88.80;;;;;;5049427;28;20041;-71
2023/07/03 11:13:01;;;;;;;13.73;3.47;;;20.20;88.90;;;;;;5050650;28;20426;-70
2023/07/03 11:15:51;;;;;;;13.50;3.25;;;20.30;89.00;;;;;;5051307;28;20128;-69
2023/07/03 11:18:48;;;;;;;13.35;2.95;;;20.60;88.40;;;;;;5054342;28;20536;-69
2023/07/03 11:21:40;;;;;;;15.00;3.60;;;20.90;87.30;;;;;;5054330;28;20251;-69
2023/07/03 11:24:29;;;;;;;18.33;3.28;;;21.10;86.60;;;;;;5053214;28;20040;-68
2023/07/03 11:27:08;;;;;;;11.77;3.53;;;21.20;85.90;;;;;;5053284;28;20033;-69
2023/07/03 11:29:34;;;;;;;13.93;3.42;;;21.30;83.70;;;;;;5054740;28;20033;-69
2023/07/03 11:32:02;;;;;;;15.23;3.15;;;21.40;83.20;;;;;;5054404;28;20052;-70
2023/07/03 11:34:28;;;;;;;10.95;2.97;;;21.30;83.10;;;;;;5053112;28;20063;-70
2023/07/03 11:36:55;;;;;;;13.52;3.30;;;21.20;83.60;;;;;;5053732;28;20029;-71
2023/07/03 11:39:28;;;;;;;10.38;3.05;;;21.10;83.70;;;;;;5054034;28;20036;-70
2023/07/03 11:41:54;;;;;;;8.65;3.00;;;21.10;83.50;;;;;;5053937;28;20052;-70
2023/07/03 11:44:39;;;;;;;14.95;3.47;;;21.10;82.00;;;;;;5054062;28;20021;-69
2023/07/03 11:47:10;;;;;;;21.00;3.33;;;21.10;82.20;;;;;;5054364;28;20052;-70
2023/07/03 11:49:41;;;;;;;9.13;2.83;;;21.20;82.00;;;;;;5052944;28;20048;-70
2023/07/03 11:52:12;;;;;;;15.40;3.28;;;21.00;82.60;;;;;;5053347;28;20112;-69
2023/07/03 11:54:39;;;;;;;14.57;3.55;;;20.90;82.10;;;;;;5053801;28;20133;-70
2023/07/03 11:57:06;;;;;;;13.20;2.73;;;20.70;81.60;;;;;;5053956;28;20021;-69
2023/07/03 11:59:38;;;;;;;9.00;2.60;;;20.80;81.80;;;;;;5054025;28;20307;-69
2023/07/03 12:02:26;;;;;;;9.52;2.35;;;20.90;81.50;;;;;;5053802;28;20025;-74
2023/07/03 12:04:53;;;;;;;14.23;3.03;;;21.10;81.60;;;;;;5013726;28;20426;-68
2023/07/03 12:07:18;;;;;;;11.93;2.85;;;21.30;81.10;;;;;;5069718;28;20036;-69
2023/07/03 12:09:45;;;;;;;13.02;3.05;;;21.30;81.60;;;;;;5073598;28;20020;-70
2023/07/03 12:12:18;;;;;;;13.05;4.32;;;21.50;80.80;;;;;;5073393;28;20078;-72
2023/07/03 12:15:11;;;;;;;7.25;2.75;;;21.70;78.40;;;;;;5073522;28;20513;-74
2023/07/03 12:17:37;;;;;;;15.63;3.03;;;21.70;78.40;;;;;;5072285;28;20047;-71
2023/07/03 12:20:05;;;;;;;12.07;3.38;;;21.70;78.10;;;;;;5073684;28;20013;-73
2023/07/03 12:22:35;;;;;;;;;;;21.60;77.90;;;;;;5073116;28;20103;-71
2023/07/03 12:25:20;;;;;;;12.73;2.90;;;21.60;78.20;;;;;;5072212;28;19912;-69
2023/07/03 12:27:48;;;;;;;9.68;2.75;;;21.40;78.70;;;;;;5071895;28;20039;-68
2023/07/03 12:30:21;;;;;;;9.40;2.78;;;21.50;79.00;;;;;;5070814;28;20033;-71
2023/07/03 12:32:51;;;;;;;10.27;2.95;;;21.60;79.30;;;;;;5072234;28;20037;-73
2023/07/03 12:35:19;;;;;;;12.27;3.00;;;21.60;79.10;;;;;;5072426;28;20082;-68
2023/07/03 12:37:48;;;;;;;20.17;3.33;;;21.40;77.30;;;;;;5072429;28;20021;-71
2023/07/03 12:40:15;;;;;;;17.80;3.85;;;21.60;77.40;;;;;;5071862;28;20032;-69
2023/07/03 12:42:44;;;;;;;13.38;2.63;;;21.70;76.70;;;;;;5071775;28;20370;-69
2023/07/03 12:45:18;;;;;;;13.00;2.97;;;21.70;76.70;;;;;;5070583;28;20041;-68
2023/07/03 12:47:45;;;;;;;10.10;2.30;;;21.70;76.80;;;;;;5071792;28;20038;-68
2023/07/03 12:50:18;;;;;;;12.37;2.63;;;21.80;76.90;;;;;;5071642;28;20507;-69